createdAt,value
2022-08-28T00:01:20.035Z,76.46
2022-08-28T00:03:50.277Z,76.43
2022-08-28T00:06:20.141Z,76.80
2022-08-28T00:08:49.985Z,77.05
2022-08-28T00:11:20.468Z,77.04
2022-08-28T00:13:53.253Z,76.96
2022-08-28T00:16:26.658Z,77.25
2022-08-28T00:18:56.474Z,77.25
2022-08-28T00:21:26.418Z,77.09
2022-08-28T00:23:56.388Z,77.23
2022-08-28T00:26:38.410Z,76.98
2022-08-28T00:29:11.122Z,77.10
2022-08-28T00:31:41.212Z,77.34
2022-08-28T00:34:12.249Z,77.58
2022-08-28T00:36:42.085Z,77.46
2022-08-28T00:39:12.689Z,77.75
2022-08-28T00:41:43.395Z,77.69
2022-08-28T00:44:18.635Z,77.17
2022-08-28T00:46:52.093Z,77.21
2022-08-28T00:49:26.126Z,76.79
2022-08-28T00:52:11.925Z,77.38
2022-08-28T00:54:58.842Z,77.18
2022-08-28T00:57:32.945Z,77.88
2022-08-28T01:00:07.289Z,77.28
2022-08-28T01:02:37.051Z,77.55
2022-08-28T01:05:09.919Z,77.23
2022-08-28T01:07:39.897Z,77.30
2022-08-28T01:10:13.850Z,77.32
2022-08-28T01:12:44.049Z,77.59
2022-08-28T01:15:20.395Z,77.46
2022-08-28T01:17:56.548Z,77.99
2022-08-28T01:20:29.909Z,77.73
2022-08-28T01:23:07.877Z,77.72
2022-08-28T01:25:41.422Z,77.75
2022-08-28T01:28:14.783Z,78.29
2022-08-28T01:30:48.653Z,77.97
2022-08-28T01:33:19.575Z,78.39
2022-08-28T01:35:57.856Z,77.85
2022-08-28T01:38:27.821Z,77.85
2022-08-28T01:41:00.631Z,77.95
2022-08-28T01:43:31.838Z,77.77
2022-08-28T01:46:04.600Z,77.79
2022-08-28T01:48:37.189Z,77.86
2022-08-28T01:51:08.465Z,77.74
2022-08-28T01:53:38.706Z,77.58
2022-08-28T01:56:14.655Z,77.87
2022-08-28T01:58:44.550Z,78.01
2022-08-28T02:01:15.150Z,77.95
2022-08-28T02:03:45.469Z,78.13
2022-08-28T02:06:16.658Z,78.07
2022-08-28T02:08:46.795Z,78.26
2022-08-28T02:11:19.626Z,78.33
2022-08-28T02:13:50.832Z,79.05
2022-08-28T02:16:20.797Z,78.91
2022-08-28T02:18:50.543Z,78.79
2022-08-28T02:21:20.469Z,78.85
2022-08-28T02:23:50.306Z,78.91
2022-08-28T02:26:23.562Z,79.22
2022-08-28T02:28:53.233Z,79.47
2022-08-28T02:31:22.949Z,79.32
2022-08-28T02:33:52.910Z,79.47
2022-08-28T02:36:24.554Z,79.50
2022-08-28T02:38:57.717Z,79.17
2022-08-28T02:41:30.346Z,78.98
2022-08-28T02:44:00.022Z,79.25
2022-08-28T02:46:29.761Z,79.49
2022-08-28T02:48:59.709Z,79.52
2022-08-28T02:51:33.513Z,79.66
2022-08-28T02:54:04.066Z,79.52
2022-08-28T02:56:36.348Z,79.12
2022-08-28T02:59:06.524Z,79.59
2022-08-28T03:01:36.878Z,79.59
2022-08-28T03:04:06.914Z,79.91
2022-08-28T03:06:36.653Z,79.83
2022-08-28T03:09:06.809Z,79.79
2022-08-28T03:11:41.467Z,79.72
2022-08-28T03:14:11.183Z,80.04
2022-08-28T03:16:40.930Z,79.80
2022-08-28T03:19:10.630Z,80.10
2022-08-28T03:21:40.891Z,80.52
2022-08-28T03:24:11.130Z,80.23
2022-08-28T03:26:47.531Z,79.80
2022-08-28T03:29:17.282Z,80.00
2022-08-28T03:31:46.961Z,80.13
2022-08-28T03:34:16.618Z,80.19
2022-08-28T03:36:46.311Z,80.56
2022-08-28T03:39:16.386Z,80.59
2022-08-28T03:41:48.622Z,80.38
2022-08-28T03:44:18.609Z,80.48
2022-08-28T03:46:48.270Z,80.38
2022-08-28T03:49:18.858Z,80.65
2022-08-28T03:51:50.217Z,80.72
2022-08-28T03:54:19.882Z,80.60
2022-08-28T03:56:52.187Z,80.07
2022-08-28T03:59:22.261Z,80.31
2022-08-28T04:01:56.329Z,80.60
2022-08-28T04:04:26.201Z,80.68
2022-08-28T04:06:55.861Z,81.01
2022-08-28T04:09:25.637Z,81.08
2022-08-28T04:11:57.963Z,81.01
2022-08-28T04:14:27.632Z,81.35
2022-08-28T04:17:01.303Z,81.22
2022-08-28T04:19:31.277Z,80.85
2022-08-28T04:22:01.321Z,80.65
2022-08-28T04:24:31.031Z,80.42
2022-08-28T04:27:03.287Z,80.18
2022-08-28T04:29:33.000Z,80.41
2022-08-28T04:32:02.835Z,80.57
2022-08-28T04:34:32.730Z,81.00
2022-08-28T04:37:02.381Z,81.00
2022-08-28T04:39:32.095Z,81.35
2022-08-28T04:42:04.452Z,82.12
2022-08-28T04:44:34.125Z,82.94
2022-08-28T04:47:04.087Z,82.73
2022-08-28T04:49:36.083Z,82.88
2022-08-28T04:52:07.030Z,82.86
2022-08-28T04:54:37.259Z,82.58
2022-08-28T04:57:09.703Z,82.79
2022-08-28T04:59:39.573Z,82.59
2022-08-28T05:02:09.367Z,82.69
2022-08-28T05:04:39.095Z,82.70
2022-08-28T05:07:08.803Z,82.68
2022-08-28T05:09:39.057Z,82.44
2022-08-28T05:12:17.132Z,82.40
2022-08-28T05:14:47.973Z,82.72
2022-08-28T05:17:18.427Z,83.03
2022-08-28T05:19:48.276Z,82.94
2022-08-28T05:22:17.967Z,83.45
2022-08-28T05:24:47.909Z,82.87
2022-08-28T05:27:20.169Z,82.15
2022-08-28T05:29:55.494Z,82.47
2022-08-28T05:32:28.538Z,81.53
2022-08-28T05:34:58.229Z,81.53
2022-08-28T05:37:27.929Z,81.51
2022-08-28T05:39:57.609Z,82.03
2022-08-28T05:42:30.956Z,81.69
2022-08-28T05:45:01.532Z,81.51
2022-08-28T05:47:32.744Z,81.72
2022-08-28T05:50:04.518Z,82.47
2022-08-28T05:52:34.417Z,82.11
2022-08-28T05:55:05.197Z,81.58
2022-08-28T05:57:37.449Z,80.74
2022-08-28T06:00:09.919Z,80.61
2022-08-28T06:02:40.867Z,80.66
2022-08-28T06:05:13.035Z,79.70
2022-08-28T06:07:45.082Z,79.56
2022-08-28T06:10:15.813Z,78.33
2022-08-28T06:12:49.339Z,77.86
2022-08-28T06:15:20.446Z,77.16
2022-08-28T06:17:50.344Z,77.83
2022-08-28T06:20:20.957Z,77.54
2022-08-28T06:22:53.171Z,77.60
2022-08-28T06:25:23.889Z,76.47
2022-08-28T06:27:57.226Z,76.58
2022-08-28T06:30:27.009Z,76.34
2022-08-28T06:33:00.034Z,76.85
2022-08-28T06:35:31.311Z,76.76
2022-08-28T06:38:01.932Z,75.75
2022-08-28T06:40:32.769Z,75.20
2022-08-28T06:43:05.102Z,75.45
2022-08-28T06:45:36.277Z,75.32
2022-08-28T06:48:06.577Z,74.77
2022-08-28T06:50:36.278Z,74.38
2022-08-28T06:53:06.096Z,73.80
2022-08-28T06:55:36.027Z,74.20
2022-08-28T06:58:12.552Z,72.43
2022-08-28T07:00:44.412Z,71.27
2022-08-28T07:03:15.164Z,68.51
2022-08-28T07:05:48.557Z,69.20
2022-08-28T07:08:18.234Z,68.77
2022-08-28T07:10:49.330Z,69.38
2022-08-28T07:13:21.614Z,69.61
2022-08-28T07:15:51.866Z,70.07
2022-08-28T07:18:21.649Z,70.26
2022-08-28T07:21:00.510Z,70.24
2022-08-28T07:23:32.223Z,70.10
2022-08-28T07:26:05.237Z,70.19
2022-08-28T07:28:38.435Z,69.45
2022-08-28T07:31:10.574Z,70.02
2022-08-28T07:33:42.303Z,70.00
2022-08-28T07:36:15.968Z,69.84
2022-08-28T07:39:01.504Z,68.40
2022-08-28T07:41:33.222Z,68.61
2022-08-28T07:44:18.618Z,68.46
2022-08-28T07:46:49.403Z,67.26
2022-08-28T07:49:19.686Z,68.80
2022-08-28T07:51:50.529Z,69.43
2022-08-28T07:54:25.313Z,67.95
2022-08-28T07:56:56.211Z,66.93
2022-08-28T07:59:36.587Z,67.25
2022-08-28T08:02:09.867Z,65.76
2022-08-28T08:04:40.084Z,65.52
2022-08-28T08:07:12.898Z,65.26
2022-08-28T08:09:46.562Z,66.42
2022-08-28T08:12:17.832Z,65.30
2022-08-28T08:14:50.604Z,64.84
2022-08-28T08:17:20.299Z,65.85
2022-08-28T08:19:51.031Z,65.17
2022-08-28T08:22:20.871Z,65.46
2022-08-28T08:24:50.559Z,63.95
2022-08-28T08:27:21.302Z,65.01
2022-08-28T08:29:54.569Z,64.65
2022-08-28T08:32:24.278Z,64.57
2022-08-28T08:34:58.477Z,64.56
2022-08-28T08:37:29.230Z,64.34
2022-08-28T08:39:58.979Z,63.15
2022-08-28T08:42:33.159Z,63.38
2022-08-28T08:45:07.436Z,63.33
2022-08-28T08:47:43.262Z,62.02
2022-08-28T08:50:21.287Z,62.67
2022-08-28T08:53:04.314Z,61.73
2022-08-28T08:55:37.786Z,61.09
2022-08-28T08:58:11.644Z,60.71
2022-08-28T09:00:59.070Z,61.86
2022-08-28T09:03:35.261Z,58.69
2022-08-28T09:06:08.559Z,60.23
2022-08-28T09:08:44.702Z,59.66
2022-08-28T09:11:30.369Z,58.50
2022-08-28T09:14:08.446Z,58.83
2022-08-28T09:16:44.561Z,57.76
2022-08-28T09:19:23.441Z,57.62
2022-08-28T09:21:55.097Z,58.58
2022-08-28T09:24:28.450Z,59.21
2022-08-28T09:27:01.751Z,56.82
2022-08-28T09:29:35.035Z,56.92
2022-08-28T09:32:28.536Z,56.82
2022-08-28T09:35:14.332Z,57.16
2022-08-28T09:37:46.613Z,55.48
2022-08-28T09:40:48.632Z,56.67
2022-08-28T09:43:30.162Z,55.86
2022-08-28T09:46:04.550Z,56.88
2022-08-28T09:48:41.268Z,56.39
2022-08-28T09:51:14.991Z,55.29
2022-08-28T09:53:58.865Z,55.91
2022-08-28T09:56:33.525Z,56.10
2022-08-28T09:59:08.445Z,56.04
2022-08-28T10:01:59.620Z,54.99
2022-08-28T10:04:49.669Z,54.00
2022-08-28T10:07:31.094Z,55.18
2022-08-28T10:10:23.024Z,55.52
2022-08-28T10:13:03.019Z,55.48
2022-08-28T10:15:46.437Z,56.68
2022-08-28T10:18:36.830Z,55.45
2022-08-28T10:21:20.786Z,55.76
2022-08-28T10:24:07.606Z,55.32
2022-08-28T10:26:45.682Z,54.56
2022-08-28T10:29:31.461Z,52.01
2022-08-28T10:32:16.128Z,54.11
2022-08-28T10:34:55.506Z,52.85
2022-08-28T10:37:37.174Z,53.27
2022-08-28T10:40:11.710Z,54.54
2022-08-28T10:42:46.575Z,55.17
2022-08-28T10:45:19.956Z,55.48
2022-08-28T10:47:54.630Z,53.83
2022-08-28T10:50:29.608Z,54.35
2022-08-28T10:53:06.473Z,53.28
2022-08-28T10:55:41.980Z,51.61
2022-08-28T10:58:24.469Z,52.14
2022-08-28T11:00:57.857Z,50.76
2022-08-28T11:03:35.243Z,52.46
2022-08-28T11:06:11.570Z,53.01
2022-08-28T11:08:45.366Z,53.41
2022-08-28T11:11:17.626Z,54.11
2022-08-28T11:13:59.748Z,53.09
2022-08-28T11:16:40.670Z,48.98
2022-08-28T11:19:54.363Z,48.98
2022-08-28T11:22:28.772Z,49.74
2022-08-28T11:25:15.141Z,49.68
2022-08-28T11:28:17.636Z,50.50
2022-08-28T11:30:50.284Z,48.56
2022-08-28T11:33:37.712Z,49.67
2022-08-28T11:36:13.828Z,49.19
2022-08-28T11:39:06.825Z,49.74
2022-08-28T11:41:41.521Z,49.28
2022-08-28T11:44:28.412Z,50.25
2022-08-28T11:47:56.786Z,50.31
2022-08-28T11:50:33.817Z,49.03
2022-08-28T11:53:27.727Z,49.59
2022-08-28T11:56:28.317Z,49.46
2022-08-28T11:59:17.633Z,50.47
2022-08-28T12:01:49.472Z,49.05
2022-08-28T12:04:22.990Z,48.11
2022-08-28T12:06:57.314Z,48.17
2022-08-28T12:09:56.292Z,47.97
2022-08-28T12:12:54.727Z,48.28
2022-08-28T12:15:43.022Z,49.46
2022-08-28T12:18:53.816Z,47.77
2022-08-28T12:21:28.796Z,47.20
2022-08-28T12:24:07.177Z,48.82
2022-08-28T12:26:45.333Z,47.65
2022-08-28T12:29:29.793Z,48.35
2022-08-28T12:32:28.881Z,48.51
2022-08-28T12:35:19.963Z,47.69
2022-08-28T12:38:04.635Z,47.23
2022-08-28T12:40:53.491Z,48.25
2022-08-28T12:43:34.964Z,49.25
2022-08-28T12:46:07.572Z,48.64
2022-08-28T12:48:54.403Z,49.69
2022-08-28T12:51:26.579Z,50.49
2022-08-28T12:54:04.427Z,48.33
2022-08-28T12:56:36.626Z,48.98
2022-08-28T12:59:27.884Z,48.42
2022-08-28T13:02:04.717Z,47.78
2022-08-28T13:04:36.966Z,48.06
2022-08-28T13:07:12.128Z,47.66
2022-08-28T13:09:53.015Z,48.41
2022-08-28T13:12:54.623Z,47.82
2022-08-28T13:15:24.405Z,48.39
2022-08-28T13:17:55.382Z,48.26
2022-08-28T13:20:30.175Z,48.88
2022-08-28T13:23:01.062Z,48.92
2022-08-28T13:25:36.510Z,47.38
2022-08-28T13:28:14.042Z,48.22
2022-08-28T13:30:44.150Z,46.32
2022-08-28T13:33:22.811Z,45.09
2022-08-28T13:35:53.751Z,46.29
2022-08-28T13:38:25.153Z,46.16
2022-08-28T13:41:01.404Z,47.02
2022-08-28T13:43:44.929Z,47.31
2022-08-28T13:46:14.759Z,47.42
2022-08-28T13:48:45.713Z,46.39
2022-08-28T13:51:20.947Z,46.21
2022-08-28T13:53:51.163Z,47.87
2022-08-28T13:56:25.208Z,46.45
2022-08-28T13:58:57.645Z,47.31
2022-08-28T14:01:49.837Z,46.97
2022-08-28T14:04:17.059Z,46.56
2022-08-28T14:06:50.918Z,46.87
2022-08-28T14:09:20.614Z,47.11
2022-08-28T14:11:54.579Z,46.08
2022-08-28T14:14:24.850Z,46.28
2022-08-28T14:16:55.403Z,45.92
2022-08-28T14:19:25.523Z,46.78
2022-08-28T14:21:55.891Z,46.13
2022-08-28T14:24:25.991Z,46.63
2022-08-28T14:26:59.762Z,45.63
2022-08-28T14:29:31.502Z,45.57
2022-08-28T14:32:02.050Z,45.73
2022-08-28T14:34:31.875Z,45.91
2022-08-28T14:37:02.603Z,45.22
2022-08-28T14:39:35.879Z,46.17
2022-08-28T14:42:13.170Z,47.32
2022-08-28T14:44:43.155Z,46.15
2022-08-28T14:47:12.934Z,45.57
2022-08-28T14:49:42.766Z,46.41
2022-08-28T14:52:12.640Z,45.61
2022-08-28T14:54:45.750Z,46.25
2022-08-28T14:57:18.017Z,46.23
2022-08-28T14:59:49.309Z,45.12
2022-08-28T15:02:19.241Z,44.43
2022-08-28T15:04:49.205Z,45.18
2022-08-28T15:07:21.349Z,45.35
2022-08-28T15:09:51.151Z,46.96
2022-08-28T15:12:24.143Z,46.69
2022-08-28T15:14:55.311Z,46.91
2022-08-28T15:17:34.343Z,47.46
2022-08-28T15:20:04.893Z,48.25
2022-08-28T15:22:36.436Z,48.35
2022-08-28T15:25:06.490Z,48.31
2022-08-28T15:27:41.167Z,47.34
2022-08-28T15:30:12.160Z,47.91
2022-08-28T15:32:44.699Z,47.00
2022-08-28T15:35:16.068Z,46.78
2022-08-28T15:37:45.984Z,47.30
2022-08-28T15:40:28.396Z,48.09
2022-08-28T15:43:01.837Z,46.80
2022-08-28T15:45:31.872Z,47.13
2022-08-28T15:48:01.839Z,47.58
2022-08-28T15:50:31.826Z,47.38
2022-08-28T15:53:01.749Z,47.76
2022-08-28T15:55:33.121Z,48.28
2022-08-28T15:58:14.096Z,47.81
2022-08-28T16:00:44.836Z,47.54
2022-08-28T16:03:14.748Z,47.79
2022-08-28T16:05:45.644Z,47.88
2022-08-28T16:08:15.437Z,47.50
2022-08-28T16:10:50.199Z,46.96
2022-08-28T16:13:23.803Z,46.91
2022-08-28T16:15:53.536Z,47.14
2022-08-28T16:18:23.364Z,48.07
2022-08-28T16:20:53.119Z,47.92
2022-08-28T16:23:22.981Z,47.62
2022-08-28T16:25:52.701Z,48.50
2022-08-28T16:28:26.038Z,48.36
2022-08-28T16:30:57.143Z,49.07
2022-08-28T16:33:27.181Z,49.37
2022-08-28T16:35:56.873Z,48.69
2022-08-28T16:38:27.484Z,48.67
2022-08-28T16:40:57.278Z,48.86
2022-08-28T16:43:29.615Z,48.15
2022-08-28T16:45:59.831Z,49.00
2022-08-28T16:48:29.463Z,50.63
2022-08-28T16:50:59.096Z,50.94
2022-08-28T16:53:28.923Z,50.82
2022-08-28T16:55:58.654Z,50.70
2022-08-28T16:58:31.090Z,50.41
2022-08-28T17:01:01.127Z,50.12
2022-08-28T17:03:31.943Z,49.89
2022-08-28T17:06:05.853Z,50.65
2022-08-28T17:08:35.662Z,51.23
2022-08-28T17:11:06.608Z,51.38
2022-08-28T17:13:40.206Z,51.64
2022-08-28T17:16:10.743Z,51.48
2022-08-28T17:18:47.440Z,51.52
2022-08-28T17:21:35.159Z,52.34
2022-08-28T17:24:06.889Z,51.70
2022-08-28T17:26:36.784Z,52.28
2022-08-28T17:29:09.168Z,52.65
2022-08-28T17:31:39.455Z,52.60
2022-08-28T17:34:10.532Z,52.76
2022-08-28T17:36:43.027Z,52.99
2022-08-28T17:39:16.594Z,53.28
2022-08-28T17:41:46.353Z,53.71
2022-08-28T17:44:18.685Z,53.48
2022-08-28T17:46:48.511Z,53.16
2022-08-28T17:49:19.334Z,53.30
2022-08-28T17:51:49.067Z,53.61
2022-08-28T17:54:21.731Z,53.35
2022-08-28T17:56:52.174Z,53.58
2022-08-28T17:59:27.670Z,53.68
2022-08-28T18:01:58.429Z,53.98
2022-08-28T18:04:28.112Z,53.59
2022-08-28T18:06:58.496Z,53.57
2022-08-28T18:09:28.214Z,54.07
2022-08-28T18:11:57.987Z,54.38
2022-08-28T18:14:31.362Z,54.63
2022-08-28T18:17:01.021Z,54.18
2022-08-28T18:19:30.810Z,54.20
2022-08-28T18:22:00.649Z,54.64
2022-08-28T18:24:30.327Z,55.00
2022-08-28T18:27:02.071Z,54.88
2022-08-28T18:29:34.410Z,53.47
2022-08-28T18:32:04.505Z,53.41
2022-08-28T18:34:34.844Z,53.81
2022-08-28T18:37:04.577Z,53.64
2022-08-28T18:39:35.929Z,54.14
2022-08-28T18:42:06.367Z,53.77
2022-08-28T18:44:39.723Z,53.84
2022-08-28T18:47:09.568Z,54.76
2022-08-28T18:49:43.052Z,54.79
2022-08-28T18:52:13.845Z,55.49
2022-08-28T18:54:43.551Z,56.37
2022-08-28T18:57:15.376Z,56.36
2022-08-28T18:59:49.005Z,56.40
2022-08-28T19:02:19.460Z,56.70
2022-08-28T19:04:49.155Z,57.23
2022-08-28T19:07:18.874Z,57.50
2022-08-28T19:09:48.528Z,57.48
2022-08-28T19:12:18.199Z,57.78
2022-08-28T19:14:59.140Z,58.46
2022-08-28T19:17:29.889Z,59.63
2022-08-28T19:20:05.334Z,60.28
2022-08-28T19:22:35.068Z,60.61
2022-08-28T19:25:07.969Z,61.07
2022-08-28T19:27:45.181Z,61.86
2022-08-28T19:30:20.637Z,61.77
2022-08-28T19:32:52.823Z,62.13
2022-08-28T19:35:24.497Z,62.19
2022-08-28T19:37:54.768Z,62.57
2022-08-28T19:40:25.052Z,62.14
2022-08-28T19:42:57.178Z,62.26
2022-08-28T19:45:30.274Z,62.01
2022-08-28T19:48:00.041Z,62.92
2022-08-28T19:50:29.829Z,62.74
2022-08-28T19:52:59.527Z,62.96
2022-08-28T19:55:30.565Z,62.89
2022-08-28T19:58:04.091Z,62.52
2022-08-28T20:00:36.950Z,62.45
2022-08-28T20:03:08.002Z,62.52
2022-08-28T20:05:39.029Z,62.62
2022-08-28T20:08:08.783Z,63.00
2022-08-28T20:10:40.688Z,62.74
2022-08-28T20:13:10.723Z,62.92
2022-08-28T20:15:44.186Z,62.49
2022-08-28T20:18:15.369Z,62.11
2022-08-28T20:20:51.162Z,62.21
2022-08-28T20:23:21.823Z,62.44
2022-08-28T20:25:52.862Z,62.69
2022-08-28T20:28:22.827Z,62.70
2022-08-28T20:30:55.187Z,62.88
2022-08-28T20:33:24.977Z,62.72
2022-08-28T20:36:02.793Z,62.45
2022-08-28T20:38:32.482Z,63.01
2022-08-28T20:41:08.490Z,62.30
2022-08-28T20:43:39.603Z,62.05
2022-08-28T20:46:16.632Z,62.92
2022-08-28T20:48:47.425Z,62.95
2022-08-28T20:51:17.224Z,63.38
2022-08-28T20:53:48.974Z,63.59
2022-08-28T20:56:18.584Z,63.75
2022-08-28T20:58:48.285Z,64.60
2022-08-28T21:01:20.630Z,64.60
2022-08-28T21:03:50.398Z,65.50
2022-08-28T21:06:20.061Z,60.71
2022-08-28T21:08:50.376Z,63.61
2022-08-28T21:11:20.389Z,64.85
2022-08-28T21:13:50.160Z,65.80
2022-08-28T21:16:22.942Z,65.83
2022-08-28T21:19:14.642Z,66.04
2022-08-28T21:21:43.777Z,66.44
2022-08-28T21:24:16.501Z,66.90
2022-08-28T21:26:50.442Z,67.46
2022-08-28T21:29:23.495Z,67.76
2022-08-28T21:31:55.960Z,67.88
2022-08-28T21:34:25.713Z,68.49
2022-08-28T21:36:55.363Z,68.43
2022-08-28T21:39:25.052Z,68.67
2022-08-28T21:41:56.653Z,68.57
2022-08-28T21:44:26.423Z,68.80
2022-08-28T21:46:58.710Z,68.54
2022-08-28T21:49:28.441Z,69.06
2022-08-28T21:52:01.172Z,69.31
2022-08-28T21:54:30.997Z,69.20
2022-08-28T21:57:01.013Z,68.87
2022-08-28T21:59:35.956Z,69.66
2022-08-28T22:02:11.779Z,69.51
2022-08-28T22:04:41.460Z,69.95
2022-08-28T22:07:12.126Z,70.35
2022-08-28T22:09:43.062Z,70.60
2022-08-28T22:12:13.090Z,70.81
2022-08-28T22:14:42.799Z,70.84
2022-08-28T22:17:15.203Z,71.17
2022-08-28T22:19:46.749Z,71.66
2022-08-28T22:22:29.262Z,72.08
2022-08-28T22:24:58.911Z,72.18
2022-08-28T22:27:28.722Z,72.50
2022-08-28T22:29:58.761Z,71.99
2022-08-28T22:32:31.018Z,72.06
2022-08-28T22:35:01.674Z,72.65
2022-08-28T22:37:32.385Z,73.28
2022-08-28T22:40:02.083Z,73.42
2022-08-28T22:42:39.103Z,73.36
2022-08-28T22:45:11.948Z,73.62
2022-08-28T22:47:44.254Z,73.37
2022-08-28T22:50:13.985Z,67.88
2022-08-28T22:52:44.106Z,71.01
2022-08-28T22:55:15.294Z,72.66
2022-08-28T22:57:45.126Z,73.40
2022-08-28T23:00:19.523Z,73.11
2022-08-28T23:02:52.654Z,73.17
2022-08-28T23:05:23.137Z,73.46
2022-08-28T23:07:52.974Z,73.54
2022-08-28T23:10:42.062Z,73.52
2022-08-28T23:13:15.981Z,73.69
2022-08-28T23:15:46.258Z,73.59
2022-08-28T23:18:22.377Z,73.17
2022-08-28T23:20:52.498Z,73.84
2022-08-28T23:23:24.250Z,74.15
2022-08-28T23:25:54.957Z,74.27
2022-08-28T23:28:24.635Z,74.48
2022-08-28T23:30:54.502Z,74.17
2022-08-28T23:33:26.999Z,73.65
2022-08-28T23:35:56.627Z,74.68
2022-08-28T23:38:26.977Z,74.38
2022-08-28T23:40:57.170Z,74.49
2022-08-28T23:43:27.981Z,74.24
2022-08-28T23:45:57.772Z,74.09
2022-08-28T23:48:30.578Z,73.80
2022-08-28T23:51:00.397Z,73.98
2022-08-28T23:53:31.209Z,74.14
2022-08-28T23:56:04.117Z,74.38
2022-08-28T23:58:33.803Z,74.20
